createdAt,value
2023-05-09T00:00:30.050Z,101216.50
2023-05-09T00:01:09.439Z,101216.50
2023-05-09T00:01:42.333Z,101216.97
2023-05-09T00:02:14.568Z,101218.63
2023-05-09T00:02:49.709Z,101214.06
2023-05-09T00:03:21.972Z,101215.94
2023-05-09T00:03:54.138Z,101217.81
2023-05-09T00:04:29.504Z,101213.25
2023-05-09T00:05:03.683Z,101218.84
2023-05-09T00:05:35.856Z,101222.34
2023-05-09T00:06:15.646Z,101216.16
2023-05-09T00:06:47.800Z,101219.88
2023-05-09T00:07:19.956Z,101216.16
2023-05-09T00:07:54.728Z,101224.00
2023-05-09T00:08:26.945Z,101219.19
2023-05-09T00:08:59.249Z,101216.50
2023-05-09T00:09:34.019Z,101220.84
2023-05-09T00:10:07.422Z,101220.03
2023-05-09T00:10:39.694Z,101210.09
2023-05-09T00:11:14.386Z,101218.16
2023-05-09T00:11:46.628Z,101213.81
2023-05-09T00:12:18.769Z,101220.84
2023-05-09T00:12:53.577Z,101219.19
2023-05-09T00:13:26.251Z,101212.78
2023-05-09T00:13:58.764Z,101217.13
2023-05-09T00:14:33.730Z,101219.81
2023-05-09T00:15:08.519Z,101215.47
2023-05-09T00:15:40.669Z,101214.66
2023-05-09T00:16:16.316Z,101214.66
2023-05-09T00:16:48.595Z,101211.38
2023-05-09T00:17:22.952Z,101215.94
2023-05-09T00:17:57.777Z,101211.59
2023-05-09T00:18:31.367Z,101221.31
2023-05-09T00:19:03.698Z,101213.25
2023-05-09T00:19:38.466Z,101217.81
2023-05-09T00:20:12.651Z,101219.66
2023-05-09T00:20:44.821Z,101216.97
2023-05-09T00:21:19.639Z,101212.44
2023-05-09T00:21:54.397Z,101216.97
2023-05-09T00:22:26.688Z,101217.81
2023-05-09T00:22:58.919Z,101216.16
2023-05-09T00:23:33.646Z,101216.97
2023-05-09T00:24:06.816Z,101217.19
2023-05-09T00:24:39.078Z,101221.53
2023-05-09T00:25:14.895Z,101220.50
2023-05-09T00:25:47.516Z,101219.06
2023-05-09T00:26:19.760Z,101218.03
2023-05-09T00:26:55.187Z,101221.53
2023-05-09T00:27:30.764Z,101226.09
2023-05-09T00:28:02.928Z,101216.38
2023-05-09T00:28:37.689Z,101215.56
2023-05-09T00:29:09.838Z,101219.31
2023-05-09T00:29:42.055Z,101220.13
2023-05-09T00:30:16.986Z,101216.38
2023-05-09T00:30:49.169Z,101213.94
2023-05-09T00:31:21.791Z,101221.75
2023-05-09T00:31:56.551Z,101222.56
2023-05-09T00:32:29.397Z,101224.44
2023-05-09T00:33:01.754Z,101216.97
2023-05-09T00:33:36.571Z,101211.59
2023-05-09T00:34:08.815Z,101209.75
2023-05-09T00:34:41.344Z,101211.59
2023-05-09T00:35:16.432Z,101216.75
2023-05-09T00:35:48.843Z,101208.69
2023-05-09T00:36:23.938Z,101213.00
2023-05-09T00:36:56.312Z,101217.56
2023-05-09T00:37:32.259Z,101216.50
2023-05-09T00:38:04.487Z,101216.75
2023-05-09T00:38:37.122Z,101220.50
2023-05-09T00:39:12.722Z,101215.13
2023-05-09T00:39:45.008Z,101216.97
2023-05-09T00:40:17.244Z,101218.03
2023-05-09T00:40:52.139Z,101216.16
2023-05-09T00:41:24.264Z,101217.19
2023-05-09T00:41:56.662Z,101218.03
2023-05-09T00:42:28.917Z,101210.78
2023-05-09T00:43:03.623Z,101216.97
2023-05-09T00:43:35.907Z,101218.03
2023-05-09T00:44:08.030Z,101224.00
2023-05-09T00:44:40.291Z,101219.44
2023-05-09T00:45:15.307Z,101225.88
2023-05-09T00:45:48.479Z,101219.66
2023-05-09T00:46:21.379Z,101222.34
2023-05-09T00:46:56.246Z,101221.31
2023-05-09T00:47:29.180Z,101213.25
2023-05-09T00:48:01.564Z,101219.66
2023-05-09T00:48:36.469Z,101211.59
2023-05-09T00:49:08.723Z,101223.41
2023-05-09T00:49:40.964Z,101213.47
2023-05-09T00:50:16.386Z,101219.66
2023-05-09T00:50:53.056Z,101225.03
2023-05-09T00:51:29.456Z,101215.13
2023-05-09T00:52:05.652Z,101217.81
2023-05-09T00:52:38.916Z,101223.19
2023-05-09T00:53:11.846Z,101225.63
2023-05-09T00:53:47.304Z,101216.97
2023-05-09T00:54:19.462Z,101219.66
2023-05-09T00:54:52.073Z,101224.22
2023-05-09T00:55:27.054Z,101218.84
2023-05-09T00:56:00.744Z,101220.72
2023-05-09T00:56:33.041Z,101217.81
2023-05-09T00:57:07.820Z,101216.97
2023-05-09T00:57:40.321Z,101213.25
2023-05-09T00:58:13.126Z,101217.81
2023-05-09T00:58:48.369Z,101222.34
2023-05-09T00:59:21.136Z,101219.66
2023-05-09T00:59:53.435Z,101216.38
2023-05-09T01:00:28.561Z,101211.59
2023-05-09T01:01:02.550Z,101216.97
2023-05-09T01:01:34.890Z,101211.59
2023-05-09T01:02:09.796Z,101221.88
2023-05-09T01:02:42.827Z,101221.88
2023-05-09T01:03:15.624Z,101216.50
2023-05-09T01:03:50.821Z,101226.22
2023-05-09T01:04:23.294Z,101215.47
2023-05-09T01:04:56.215Z,101217.13
2023-05-09T01:05:39.887Z,101221.44
2023-05-09T01:06:21.165Z,101221.88
2023-05-09T01:07:06.323Z,101213.69
2023-05-09T01:07:46.496Z,101222.56
2023-05-09T01:08:30.653Z,101219.06
2023-05-09T01:09:10.768Z,101222.00
2023-05-09T01:09:46.882Z,101212.38
2023-05-09T01:10:29.880Z,101219.41
2023-05-09T01:11:12.582Z,101212.97
2023-05-09T01:11:50.724Z,101215.44
2023-05-09T01:12:28.424Z,101217.88
2023-05-09T01:13:08.835Z,101217.88
2023-05-09T01:13:44.737Z,101209.94
2023-05-09T01:14:30.323Z,101215.06
2023-05-09T01:15:11.512Z,101211.34
2023-05-09T01:15:51.560Z,101215.66
2023-05-09T01:16:29.617Z,101214.03
2023-05-09T01:17:13.771Z,101220.00
2023-05-09T01:17:53.090Z,101218.34
2023-05-09T01:18:31.326Z,101218.34
2023-05-09T01:19:25.376Z,101216.69
2023-05-09T01:20:05.792Z,101218.00
2023-05-09T01:20:45.798Z,101222.41
2023-05-09T01:21:24.440Z,101219.72
2023-05-09T01:22:02.337Z,101227.31
2023-05-09T01:22:39.235Z,101220.91
2023-05-09T01:23:56.832Z,101221.13
2023-05-09T01:24:52.239Z,101224.50
2023-05-09T01:25:38.361Z,101222.63
2023-05-09T01:26:21.918Z,101220.75
2023-05-09T01:27:16.411Z,101221.00
2023-05-09T01:27:57.861Z,101218.53
2023-05-09T01:28:45.123Z,101218.53
2023-05-09T01:29:36.668Z,101223.31
2023-05-09T01:30:12.159Z,101225.78
2023-05-09T01:30:49.689Z,101220.19
2023-05-09T01:31:23.039Z,101221.22
2023-05-09T01:31:57.331Z,101215.63
2023-05-09T01:32:35.045Z,101218.06
2023-05-09T01:33:08.341Z,101219.94
2023-05-09T01:33:46.150Z,101224.28
2023-05-09T01:34:23.468Z,101219.72
2023-05-09T01:34:59.506Z,101221.59
2023-05-09T01:35:33.596Z,101218.06
2023-05-09T01:36:14.799Z,101223.22
2023-05-09T01:36:50.391Z,101225.09
2023-05-09T01:37:29.012Z,101212.69
2023-05-09T01:38:06.903Z,101218.06
2023-05-09T01:38:41.532Z,101217.25
2023-05-09T01:39:14.538Z,101216.00
2023-05-09T01:39:52.679Z,101220.06
2023-05-09T01:40:30.099Z,101224.63
2023-05-09T01:41:06.215Z,101219.25
2023-05-09T01:41:39.042Z,101221.94
2023-05-09T01:42:13.010Z,101220.91
2023-05-09T01:42:50.157Z,101222.53
2023-05-09T01:43:28.407Z,101226.28
2023-05-09T01:44:03.814Z,101220.06
2023-05-09T01:44:41.309Z,101214.50
2023-05-09T01:45:18.290Z,101228.75
2023-05-09T01:45:53.205Z,101222.53
2023-05-09T01:46:27.502Z,101224.19
2023-05-09T01:47:03.401Z,101226.88
2023-05-09T01:47:37.676Z,101226.88
2023-05-09T01:48:11.323Z,101221.50
2023-05-09T01:48:47.850Z,101221.50
2023-05-09T01:49:20.904Z,101209.94
2023-05-09T01:49:54.339Z,101219.66
2023-05-09T01:50:32.386Z,101224.19
2023-05-09T01:51:05.830Z,101224.63
2023-05-09T01:51:40.779Z,101217.63
2023-05-09T01:52:17.490Z,101220.31
2023-05-09T01:52:55.560Z,101220.31
2023-05-09T01:53:29.665Z,101215.16
2023-05-09T01:54:02.779Z,101212.47
2023-05-09T01:54:38.924Z,101211.88
2023-05-09T01:55:12.585Z,101218.06
2023-05-09T01:55:46.595Z,101217.84
2023-05-09T01:56:22.288Z,101220.53
2023-05-09T01:56:55.950Z,101225.69
2023-05-09T01:57:29.667Z,101221.38
2023-05-09T01:58:04.263Z,101226.75
2023-05-09T01:58:41.555Z,101217.03
2023-05-09T01:59:16.450Z,101217.25
2023-05-09T01:59:52.834Z,101220.19
2023-05-09T02:00:28.408Z,101219.94
2023-05-09T02:01:01.800Z,101213.75
2023-05-09T02:01:35.351Z,101225.09
2023-05-09T02:02:11.015Z,101223.22
2023-05-09T02:02:44.217Z,101219.72
2023-05-09T02:03:16.729Z,101228.81
2023-05-09T02:03:53.884Z,101221.38
2023-05-09T02:04:28.704Z,101215.16
2023-05-09T02:05:01.902Z,101224.28
2023-05-09T02:05:37.684Z,101218.31
2023-05-09T02:06:11.259Z,101223.09
2023-05-09T02:06:44.863Z,101220.41
2023-05-09T02:07:20.380Z,101224.94
2023-05-09T02:07:54.978Z,101216.06
2023-05-09T02:08:27.884Z,101216.91
2023-05-09T02:09:03.673Z,101220.41
2023-05-09T02:09:36.158Z,101224.94
2023-05-09T02:10:10.024Z,101222.28
2023-05-09T02:10:46.477Z,101223.69
2023-05-09T02:11:18.851Z,101222.06
2023-05-09T02:11:51.208Z,101219.13
2023-05-09T02:12:26.856Z,101222.63
2023-05-09T02:12:59.074Z,101223.44
2023-05-09T02:13:31.534Z,101216.44
2023-05-09T02:14:03.735Z,101222.41
2023-05-09T02:14:38.574Z,101227.56
2023-05-09T02:15:13.707Z,101217.63
2023-05-09T02:15:48.093Z,101227.56
2023-05-09T02:16:25.411Z,101222.41
2023-05-09T02:16:57.824Z,101227.78
2023-05-09T02:17:31.060Z,101220.53
2023-05-09T02:18:06.025Z,101222.19
2023-05-09T02:18:39.798Z,101218.06
2023-05-09T02:19:11.996Z,101222.19
2023-05-09T02:19:47.050Z,101218.44
2023-05-09T02:20:20.383Z,101224.88
2023-05-09T02:20:52.749Z,101220.53
2023-05-09T02:21:29.202Z,101221.38
2023-05-09T02:22:02.292Z,101225.91
2023-05-09T02:22:34.454Z,101220.53
2023-05-09T02:23:09.439Z,101224.06
2023-05-09T02:23:41.723Z,101218.06
2023-05-09T02:24:14.376Z,101224.50
2023-05-09T02:24:49.241Z,101218.31
2023-05-09T02:25:23.490Z,101217.25
2023-05-09T02:25:56.262Z,101221.00
2023-05-09T02:26:32.044Z,101222.63
2023-05-09T02:27:05.497Z,101225.31
2023-05-09T02:27:39.413Z,101219.94
2023-05-09T02:28:14.839Z,101222.88
2023-05-09T02:28:47.865Z,101215.84
2023-05-09T02:29:28.608Z,101218.53
2023-05-09T02:30:07.670Z,101224.94
2023-05-09T02:30:44.613Z,101227.06
2023-05-09T02:31:20.530Z,101223.78
2023-05-09T02:31:56.188Z,101221.09
2023-05-09T02:32:31.784Z,101226.47
2023-05-09T02:33:06.799Z,101230.19
2023-05-09T02:33:42.567Z,101223.78
2023-05-09T02:34:15.497Z,101226.47
2023-05-09T02:34:49.261Z,101228.09
2023-05-09T02:35:25.618Z,101228.94
2023-05-09T02:35:58.290Z,101231.63
2023-05-09T02:36:31.800Z,101230.53
2023-05-09T02:37:06.668Z,101232.19
2023-05-09T02:37:42.901Z,101233.84
2023-05-09T02:38:16.028Z,101232.19
2023-05-09T02:38:50.916Z,101234.66
2023-05-09T02:39:23.155Z,101230.31
2023-05-09T02:39:55.973Z,101231.97
2023-05-09T02:40:32.387Z,101235.47
2023-05-09T02:41:04.676Z,101233.84
2023-05-09T02:41:36.986Z,101224.94
2023-05-09T02:42:13.214Z,101230.09
2023-05-09T02:42:45.561Z,101233.00
2023-05-09T02:43:17.699Z,101232.78
2023-05-09T02:43:52.421Z,101228.25
2023-05-09T02:44:24.621Z,101227.63
2023-05-09T02:44:56.900Z,101227.44
2023-05-09T02:45:29.180Z,101233.63
2023-05-09T02:46:06.770Z,101229.06
2023-05-09T02:46:39.098Z,101239.22
2023-05-09T02:47:11.458Z,101231.75
2023-05-09T02:47:46.381Z,101230.94
2023-05-09T02:48:18.716Z,101237.91
2023-05-09T02:48:51.619Z,101235.03
2023-05-09T02:49:32.144Z,101235.84
2023-05-09T02:50:09.552Z,101235.25
2023-05-09T02:50:43.641Z,101226.38
2023-05-09T02:51:16.033Z,101240.41
2023-05-09T02:51:50.794Z,101235.84
2023-05-09T02:52:23.096Z,101232.34
2023-05-09T02:52:55.258Z,101240.19
2023-05-09T02:53:30.045Z,101234.56
2023-05-09T02:54:02.334Z,101233.75
2023-05-09T02:54:34.713Z,101241.56
2023-05-09T02:55:11.110Z,101233.28
2023-05-09T02:55:45.682Z,101236.19
2023-05-09T02:56:20.990Z,101241.56
2023-05-09T02:56:53.228Z,101240.75
2023-05-09T02:57:25.420Z,101231.66
2023-05-09T02:58:12.065Z,101236.81
2023-05-09T02:58:51.546Z,101236.44
2023-05-09T02:59:24.127Z,101233.75
2023-05-09T02:59:56.746Z,101234.81
2023-05-09T03:00:31.631Z,101231.06
2023-05-09T03:01:06.472Z,101231.88
2023-05-09T03:01:38.750Z,101237.25
2023-05-09T03:02:13.770Z,101234.56
2023-05-09T03:02:47.379Z,101233.75
2023-05-09T03:03:23.635Z,101239.13
2023-05-09T03:03:59.090Z,101234.56
2023-05-09T03:04:31.332Z,101239.13
2023-05-09T03:05:04.026Z,101236.44
2023-05-09T03:05:38.836Z,101232.13
2023-05-09T03:06:11.112Z,101232.13
2023-05-09T03:06:43.285Z,101241.00
2023-05-09T03:07:18.206Z,101236.44
2023-05-09T03:07:51.560Z,101234.81
2023-05-09T03:08:23.739Z,101234.56
2023-05-09T03:08:58.466Z,101239.72
2023-05-09T03:09:31.159Z,101244.25
2023-05-09T03:10:03.869Z,101237.03
2023-05-09T03:10:39.618Z,101246.94
2023-05-09T03:11:11.808Z,101244.25
2023-05-09T03:11:44.488Z,101240.53
2023-05-09T03:12:16.683Z,101241.94
2023-05-09T03:12:51.450Z,101245.22
2023-05-09T03:13:24.349Z,101244.41
2023-05-09T03:13:56.578Z,101249.56
2023-05-09T03:14:31.612Z,101243.16
2023-05-09T03:15:04.837Z,101243.16
2023-05-09T03:15:37.048Z,101240.19
2023-05-09T03:16:17.706Z,101244.75
2023-05-09T03:16:50.766Z,101245.81
2023-05-09T03:17:30.824Z,101245.09
2023-05-09T03:18:05.825Z,101236.19
2023-05-09T03:18:38.030Z,101246.72
2023-05-09T03:19:10.737Z,101250.00
2023-05-09T03:19:42.916Z,101243.56
2023-05-09T03:20:18.386Z,101241.94
2023-05-09T03:20:50.570Z,101243.56
2023-05-09T03:21:22.803Z,101243.56
2023-05-09T03:21:58.119Z,101244.63
2023-05-09T03:22:30.899Z,101241.94
2023-05-09T03:23:07.284Z,101247.31
2023-05-09T03:23:42.309Z,101244.63
2023-05-09T03:24:14.567Z,101251.63
2023-05-09T03:24:46.817Z,101250.59
2023-05-09T03:25:22.495Z,101253.28
2023-05-09T03:25:54.773Z,101251.41
2023-05-09T03:26:26.927Z,101246.88
2023-05-09T03:27:02.760Z,101251.19
2023-05-09T03:27:34.992Z,101252.00
2023-05-09T03:28:08.345Z,101256.31
2023-05-09T03:28:43.469Z,101254.47
2023-05-09T03:29:15.708Z,101255.28
2023-05-09T03:29:47.855Z,101255.06
2023-05-09T03:30:23.826Z,101259.38
2023-05-09T03:30:56.898Z,101258.34
2023-05-09T03:31:36.294Z,101254.81
2023-05-09T03:32:12.053Z,101252.97
2023-05-09T03:32:45.545Z,101251.31
2023-05-09T03:33:17.923Z,101259.38
2023-05-09T03:33:52.720Z,101255.88
2023-05-09T03:34:25.205Z,101258.34
2023-05-09T03:34:57.566Z,101251.31
2023-05-09T03:35:33.311Z,101255.66
2023-05-09T03:36:08.906Z,101261.03
2023-05-09T03:36:42.593Z,101257.75
2023-05-09T03:37:17.081Z,101260.44
2023-05-09T03:37:52.184Z,101255.88
2023-05-09T03:38:24.643Z,101266.41
2023-05-09T03:38:57.054Z,101260.81
2023-05-09T03:39:32.034Z,101259.75
2023-05-09T03:40:06.248Z,101265.72
2023-05-09T03:40:44.241Z,101257.88
2023-05-09T03:41:20.765Z,101250.41
2023-05-09T03:41:53.796Z,101261.75
2023-05-09T03:42:26.039Z,101268.53
2023-05-09T03:43:04.607Z,101257.78
2023-05-09T03:43:37.463Z,101263.97
2023-05-09T03:44:09.584Z,101259.44
2023-05-09T03:44:44.367Z,101257.31
2023-05-09T03:45:16.810Z,101261.88
2023-05-09T03:45:50.832Z,101268.06
2023-05-09T03:46:25.778Z,101267.84
2023-05-09T03:47:00.784Z,101262.47
2023-05-09T03:47:37.695Z,101271.81
2023-05-09T03:48:12.902Z,101264.56
2023-05-09T03:48:50.766Z,101266.44
2023-05-09T03:49:23.211Z,101265.38
2023-05-09T03:50:00.849Z,101261.66
2023-05-09T03:50:33.285Z,101273.22
2023-05-09T03:51:05.801Z,101265.16
2023-05-09T03:51:44.771Z,101259.78
2023-05-09T03:52:20.579Z,101261.66
2023-05-09T03:52:55.408Z,101266.81
2023-05-09T03:53:30.213Z,101270.06
2023-05-09T03:54:02.625Z,101263.66
2023-05-09T03:54:35.154Z,101266.94
2023-05-09T03:55:12.281Z,101265.88
2023-05-09T03:55:44.599Z,101265.88
2023-05-09T03:56:18.801Z,101266.69
2023-05-09T03:56:58.009Z,101271.25
2023-05-09T03:57:30.157Z,101271.25
2023-05-09T03:58:03.478Z,101270.22
2023-05-09T03:58:39.764Z,101269.38
2023-05-09T03:59:11.928Z,101276.41
2023-05-09T03:59:44.278Z,101270.22
2023-05-09T04:00:22.079Z,101271.03
2023-05-09T04:01:04.730Z,101273.16
2023-05-09T04:01:40.307Z,101264.81
2023-05-09T04:02:16.167Z,101268.34
2023-05-09T04:02:50.318Z,101269.97
2023-05-09T04:03:34.434Z,101272.66
2023-05-09T04:04:07.890Z,101277.00
2023-05-09T04:04:41.297Z,101273.25
2023-05-09T04:05:16.903Z,101270.38
2023-05-09T04:05:49.497Z,101270.16
2023-05-09T04:06:31.561Z,101272.00
2023-05-09T04:07:06.971Z,101265.59
2023-05-09T04:07:39.196Z,101274.25
2023-05-09T04:08:11.641Z,101272.38
2023-05-09T04:08:46.517Z,101270.50
2023-05-09T04:09:18.842Z,101271.31
2023-05-09T04:09:52.609Z,101275.88
2023-05-09T04:10:28.257Z,101273.19
2023-05-09T04:11:00.751Z,101275.28
2023-05-09T04:11:32.969Z,101275.06
2023-05-09T04:12:09.253Z,101276.94
2023-05-09T04:12:41.486Z,101271.53
2023-05-09T04:13:13.775Z,101275.06
2023-05-09T04:13:49.354Z,101272.16
2023-05-09T04:14:37.025Z,101271.84
2023-05-09T04:15:11.253Z,101277.81
2023-05-09T04:15:46.278Z,101274.91
2023-05-09T04:16:18.582Z,101277.41
2023-05-09T04:16:50.880Z,101274.47
2023-05-09T04:17:28.341Z,101280.66
2023-05-09T04:18:00.630Z,101278.78
2023-05-09T04:18:32.934Z,101276.94
2023-05-09T04:19:08.205Z,101276.94
2023-05-09T04:19:41.166Z,101278.78
2023-05-09T04:20:13.694Z,101279.63
2023-05-09T04:20:50.746Z,101272.38
2023-05-09T04:21:22.928Z,101279.41
2023-05-09T04:21:58.893Z,101281.03
2023-05-09T04:22:33.629Z,101277.06
2023-05-09T04:23:06.248Z,101283.84
2023-05-09T04:23:39.116Z,101280.91
2023-05-09T04:24:14.514Z,101279.06
2023-05-09T04:24:49.064Z,101279.88
2023-05-09T04:25:21.386Z,101280.44
2023-05-09T04:25:57.113Z,101281.06
2023-05-09T04:26:31.426Z,101282.69
2023-05-09T04:27:04.953Z,101285.38
2023-05-09T04:27:39.850Z,101279.53
2023-05-09T04:28:12.157Z,101279.53
2023-05-09T04:28:44.697Z,101287.13
2023-05-09T04:29:21.348Z,101282.56
2023-05-09T04:29:58.150Z,101285.53
2023-05-09T04:30:30.905Z,101286.31
2023-05-09T04:31:06.794Z,101288.78
2023-05-09T04:31:39.725Z,101288.31
2023-05-09T04:32:13.842Z,101288.09
2023-05-09T04:32:51.479Z,101285.75
2023-05-09T04:33:24.639Z,101284.69
2023-05-09T04:33:58.556Z,101285.31
2023-05-09T04:34:34.558Z,101290.44
2023-05-09T04:35:13.320Z,101291.25
2023-05-09T04:35:48.953Z,101286.47
2023-05-09T04:36:24.166Z,101288.91
2023-05-09T04:36:56.355Z,101293.25
2023-05-09T04:37:28.921Z,101295.47
2023-05-09T04:38:05.031Z,101290.91
2023-05-09T04:38:37.225Z,101288.22
2023-05-09T04:39:13.143Z,101289.88
2023-05-09T04:39:55.623Z,101288.00
2023-05-09T04:40:33.667Z,101286.94
2023-05-09T04:41:09.086Z,101287.53
2023-05-09T04:41:43.947Z,101283.78
2023-05-09T04:42:16.139Z,101295.16
2023-05-09T04:42:50.991Z,101291.38
2023-05-09T04:43:28.128Z,101289.75
2023-05-09T04:44:00.440Z,101288.69
2023-05-09T04:44:36.053Z,101299.00
2023-05-09T04:45:11.921Z,101289.06
2023-05-09T04:45:48.131Z,101295.84
2023-05-09T04:46:23.626Z,101290.22
2023-05-09T04:46:58.282Z,101288.13
2023-05-09T04:47:33.152Z,101291.41
2023-05-09T04:48:08.109Z,101294.66
2023-05-09T04:48:40.581Z,101293.63
2023-05-09T04:49:15.368Z,101289.66
2023-05-09T04:49:47.560Z,101287.75
2023-05-09T04:50:20.130Z,101281.31
2023-05-09T04:50:54.866Z,101283.56
2023-05-09T04:51:27.073Z,101295.94
2023-05-09T04:51:59.213Z,101291.16
2023-05-09T04:52:31.476Z,101291.16
2023-05-09T04:53:08.597Z,101289.03
2023-05-09T04:53:41.236Z,101292.56
2023-05-09T04:54:13.458Z,101292.34
2023-05-09T04:54:49.182Z,101288.59
2023-05-09T04:55:24.113Z,101285.06
2023-05-09T04:55:57.006Z,101297.25
2023-05-09T04:56:32.215Z,101293.72
2023-05-09T04:57:17.463Z,101295.38
2023-05-09T04:57:54.849Z,101291.63
2023-05-09T04:58:27.244Z,101291.41
2023-05-09T04:59:01.718Z,101293.84
2023-05-09T04:59:37.537Z,101284.50
2023-05-09T05:00:12.699Z,101291.53
2023-05-09T05:00:45.722Z,101290.69
2023-05-09T05:01:20.658Z,101288.56
2023-05-09T05:01:52.867Z,101293.13
2023-05-09T05:02:26.848Z,101292.09
2023-05-09T05:03:02.224Z,101287.28
2023-05-09T05:03:38.381Z,101290.56
2023-05-09T05:04:11.584Z,101291.16
2023-05-09T05:04:46.378Z,101288.19
2023-05-09T05:05:24.706Z,101287.97
2023-05-09T05:05:58.317Z,101292.31
2023-05-09T05:06:33.267Z,101284.81
2023-05-09T05:07:05.937Z,101288.31
2023-05-09T05:07:38.225Z,101292.44
2023-05-09T05:08:13.579Z,101294.03
2023-05-09T05:08:47.107Z,101289.47
2023-05-09T05:09:19.966Z,101295.22
2023-05-09T05:09:54.968Z,101293.94
2023-05-09T05:10:27.721Z,101291.84
2023-05-09T05:11:07.678Z,101296.97
2023-05-09T05:11:53.228Z,101297.56
2023-05-09T05:12:31.181Z,101291.91
2023-05-09T05:13:06.625Z,101299.88
2023-05-09T05:13:40.366Z,101296.34
2023-05-09T05:14:12.921Z,101299.38
2023-05-09T05:14:47.690Z,101301.84
2023-05-09T05:15:23.892Z,101290.59
2023-05-09T05:15:56.697Z,101286.34
2023-05-09T05:16:31.508Z,101298.56
2023-05-09T05:17:03.759Z,101293.97
2023-05-09T05:17:36.376Z,101288.34
2023-05-09T05:18:12.994Z,101289.97
2023-05-09T05:18:48.221Z,101292.44
2023-05-09T05:19:23.213Z,101293.25
2023-05-09T05:19:56.302Z,101294.88
2023-05-09T05:20:28.750Z,101296.53
2023-05-09T05:21:03.793Z,101299.03
2023-05-09T05:21:35.950Z,101291.50
2023-05-09T05:22:08.199Z,101290.44
2023-05-09T05:22:45.334Z,101294.78
2023-05-09T05:23:18.499Z,101291.03
2023-05-09T05:23:50.845Z,101288.09
2023-05-09T05:24:25.580Z,101293.25
2023-05-09T05:24:58.485Z,101295.72
2023-05-09T05:25:33.631Z,101285.16
2023-05-09T05:26:06.791Z,101293.34
2023-05-09T05:26:40.551Z,101292.28
2023-05-09T05:27:15.409Z,101293.69
2023-05-09T05:27:47.644Z,101296.69
2023-05-09T05:28:19.962Z,101299.72
2023-05-09T05:28:55.663Z,101301.13
2023-05-09T05:29:28.132Z,101295.50
2023-05-09T05:30:00.659Z,101297.72
2023-05-09T05:30:35.449Z,101294.53
2023-05-09T05:31:08.100Z,101297.81
2023-05-09T05:31:40.268Z,101290.28
2023-05-09T05:32:15.428Z,101288.19
2023-05-09T05:32:47.716Z,101296.03
2023-05-09T05:33:22.862Z,101292.25
2023-05-09T05:34:00.774Z,101294.72
2023-05-09T05:34:33.198Z,101294.72
2023-05-09T05:35:06.542Z,101286.41
2023-05-09T05:35:43.923Z,101292.59
2023-05-09T05:36:16.214Z,101291.28
2023-05-09T05:36:50.950Z,101289.16
2023-05-09T05:37:23.194Z,101293.50
2023-05-09T05:37:55.666Z,101289.97
2023-05-09T05:38:30.867Z,101292.69
2023-05-09T05:39:04.688Z,101293.75
2023-05-09T05:39:37.111Z,101288.38
2023-05-09T05:40:12.965Z,101291.63
2023-05-09T05:40:48.565Z,101289.97
2023-05-09T05:41:21.059Z,101295.13
2023-05-09T05:41:57.046Z,101291.94
2023-05-09T05:42:29.265Z,101293.59
2023-05-09T05:43:04.080Z,101293.34
2023-05-09T05:43:38.506Z,101290.41
2023-05-09T05:44:11.284Z,101285.81
2023-05-09T05:44:46.498Z,101289.94
2023-05-09T05:45:19.070Z,101293.44
2023-05-09T05:45:55.983Z,101291.31
2023-05-09T05:46:32.147Z,101287.78
2023-05-09T05:47:04.625Z,101286.72
2023-05-09T05:47:37.769Z,101293.78
2023-05-09T05:48:12.832Z,101288.16
2023-05-09T05:48:45.025Z,101287.06
2023-05-09T05:49:19.859Z,101284.34
2023-05-09T05:49:54.587Z,101283.63
2023-05-09T05:50:26.862Z,101280.69
2023-05-09T05:50:59.250Z,101291.56
2023-05-09T05:51:37.561Z,101290.75
2023-05-09T05:52:11.363Z,101288.59
2023-05-09T05:52:43.885Z,101298.13
2023-05-09T05:53:21.582Z,101298.66
2023-05-09T05:53:55.503Z,101294.69
2023-05-09T05:54:30.795Z,101295.22
2023-05-09T05:55:03.550Z,101292.31
2023-05-09T05:55:35.763Z,101297.19
2023-05-09T05:56:11.038Z,101289.69
2023-05-09T05:56:43.383Z,101295.41
2023-05-09T05:57:16.182Z,101291.41
2023-05-09T05:57:51.444Z,101287.38
2023-05-09T05:58:24.737Z,101293.09
2023-05-09T05:58:57.298Z,101289.09
2023-05-09T05:59:32.049Z,101292.94
2023-05-09T06:00:06.671Z,101289.75
2023-05-09T06:00:46.148Z,101294.91
2023-05-09T06:01:21.557Z,101290.63
2023-05-09T06:01:53.797Z,101291.19
2023-05-09T06:02:29.528Z,101291.53
2023-05-09T06:03:01.757Z,101293.16
2023-05-09T06:03:43.461Z,101289.16
2023-05-09T06:04:15.807Z,101292.41
2023-05-09T06:04:55.863Z,101291.34
2023-05-09T06:05:28.409Z,101300.78
2023-05-09T06:06:00.745Z,101290.78
2023-05-09T06:06:35.615Z,101296.19
2023-05-09T06:07:07.975Z,101297.81
2023-05-09T06:07:41.260Z,101298.97
2023-05-09T06:08:17.026Z,101294.38
2023-05-09T06:08:50.176Z,101292.28
2023-05-09T06:09:22.444Z,101294.72
2023-05-09T06:09:58.039Z,101290.69
2023-05-09T06:10:30.232Z,101288.81
2023-05-09T06:11:02.613Z,101290.19
2023-05-09T06:11:37.651Z,101290.78
2023-05-09T06:12:09.917Z,101289.44
2023-05-09T06:12:42.218Z,101292.72
2023-05-09T06:13:17.197Z,101294.91
2023-05-09T06:13:54.069Z,101292.81
2023-05-09T06:14:26.322Z,101292.53
2023-05-09T06:15:01.670Z,101293.34
2023-05-09T06:15:34.005Z,101287.69
2023-05-09T06:16:45.144Z,101291.78
2023-05-09T06:17:18.038Z,101290.47
2023-05-09T06:17:53.028Z,101292.91
2023-05-09T06:18:25.279Z,101297.00
2023-05-09T06:19:00.029Z,101295.94
2023-05-09T06:19:32.161Z,101296.75
2023-05-09T06:20:08.134Z,101290.53
2023-05-09T06:20:42.988Z,101293.78
2023-05-09T06:21:15.222Z,101288.63
2023-05-09T06:21:49.984Z,101284.31
2023-05-09T06:22:22.173Z,101288.91
2023-05-09T06:22:54.396Z,101286.19
2023-05-09T06:23:29.257Z,101291.59
2023-05-09T06:24:09.724Z,101281.63
2023-05-09T06:24:46.818Z,101289.72
2023-05-09T06:25:19.152Z,101291.59
2023-05-09T06:25:51.274Z,101294.31
2023-05-09T06:26:26.423Z,101296.19
2023-05-09T06:26:58.776Z,101284.31
2023-05-09T06:27:31.076Z,101291.34
2023-05-09T06:28:06.213Z,101285.69
2023-05-09T06:28:38.923Z,101297.91
2023-05-09T06:29:15.365Z,101289.50
2023-05-09T06:29:47.531Z,101284.94
2023-05-09T06:30:26.295Z,101288.22
2023-05-09T06:30:59.340Z,101284.69
2023-05-09T06:31:36.055Z,101287.69
2023-05-09T06:32:08.313Z,101284.75
2023-05-09T06:32:40.614Z,101288.81
2023-05-09T06:33:15.414Z,101290.22
2023-05-09T06:33:47.639Z,101291.59
2023-05-09T06:34:19.848Z,101288.06
2023-05-09T06:34:54.687Z,101288.88
2023-05-09T06:35:29.408Z,101286.19
2023-05-09T06:36:04.196Z,101287.81
2023-05-09T06:36:36.359Z,101288.66
2023-05-09T06:37:08.514Z,101291.06
2023-05-09T06:37:43.331Z,101281.91